Aérodrome :
LOGIN :

S'inscrire | Disclaimer

   EN    FR    IT 

 










Légende :    VFR   VFR Marginal   IFR   IFR Intensif   IFR Très Intensif
Visi : 
Plafond : 
>= 8 km
>= 3000ft
5 à 8 km
1000 à 3000 ft
1500m à 5 km
500 à 1000 ft
800 à 1500m
200 à 500 ft
< 800m
< 200 ft
Symboles :   Orages  Brouillard  Fortes neiges  Fortes précipitations  Vent > 20 kt
SIGMETs :   Divers  Orages  Givrage  Turbulence  Onde Orograph.  Cendres Volcan.







- Altitude de l'aérodrome : 220 ft
- Code IATA : CWL
- Voir les cartes d'approche


EGFF - Cardiff Rhoose

DERNIER METAR :
  • 210450Z AUTO 17008KT 9999 OVC008 15/14 Q1011

METARs EXPIRÉS :
  • 210420Z AUTO 16008KT 9999 OVC008 15/14 Q1011
  • 210350Z AUTO 16009KT 9999 OVC008 15/14 Q1011
  • 210320Z AUTO 18009KT 9999 OVC009 15/14 Q1012
  • 210250Z AUTO 17009KT 9999 OVC011 15/14 Q1012
  • 210220Z AUTO 17010KT 9999 OVC011 15/14 Q1012

TAF AMD TAF EGFF
Valide du 21 à 00h jusqu'au 22 à 00h UTC


202359Z 2100/2124 19010KT 9999 SCT012
TEMPO 2100/2103 BKN009
TEMPO 2100/2114 20017G27KT
TEMPO 2103/2114 6000 RA BKN009
PROB30
TEMPO 2106/2114 4000 RADZ BKN004
BECMG 2107/2110 28010KT
PROB40
TEMPO 2112/2114 BKN012
ATIS : +44 1446 729 319
Pas de NOTAMs connus pour ce terrain.



MET'MAP, la Météo Aéronautique d'un coup d'oeil ! - Copyright ORBIFLY Décembre 2007 - Disclaimer

ORBIFLY MET'MAP TEAM :

Programmation & Développement : Alexandra Zaïnal
Conception & Développement : Baudouin d'Aumeries
Co-Programmation & Développement : Marc-Olivier Méhu
Soutien technique & logistique : Manuel Goepfert

Contact : metmap@orbifly.com




SOURCES & CREDITS :

   NOAA